Time;durP1;ratioP1;P1;durP2;ratioP2;P2;SDS_P1;SDS_P2;PMS_P1;PMS_P2;Temp;Humidity;BMP_temperature;BMP_pressure;BME280_temperature;BME280_humidity;BME280_pressure;Samples;Min_cycle;Max_cycle;Signal;HPM_P1;HPM_P2
2022/11/09 00:02:34;;;;;;;1.67;1.00;;;15.70;76.90;;;;;;10488919;28;20029;-55
2022/11/09 00:07:34;;;;;;;3.78;1.20;;;15.70;76.80;;;;;;10461757;28;20072;-55
2022/11/09 00:12:35;;;;;;;3.08;1.40;;;15.70;76.80;;;;;;10466247;28;20133;-54
2022/11/09 00:17:35;;;;;;;2.58;0.90;;;15.70;76.80;;;;;;10447687;28;20056;-55
2022/11/09 00:22:36;;;;;;;1.65;1.00;;;15.70;76.80;;;;;;10462661;28;20535;-54
2022/11/09 00:27:37;;;;;;;1.92;1.00;;;15.70;76.70;;;;;;10459400;28;20056;-55
2022/11/09 00:37:51;;;;;;;1.63;0.82;;;15.70;76.70;;;;;;10566421;27;20412;-55
2022/11/09 00:42:52;;;;;;;1.73;0.82;;;15.70;76.70;;;;;;10524223;28;20594;-56
2022/11/09 00:47:53;;;;;;;2.30;0.90;;;15.70;76.80;;;;;;10523671;28;20021;-56
2022/11/09 00:52:53;;;;;;;3.38;1.20;;;15.60;76.60;;;;;;10521887;28;20478;-55
2022/11/09 00:57:54;;;;;;;2.00;1.08;;;15.70;76.70;;;;;;10481710;28;20718;-56
2022/11/09 01:02:54;;;;;;;2.88;0.88;;;15.70;76.70;;;;;;10480109;28;20086;-55
2022/11/09 01:07:55;;;;;;;1.10;0.65;;;15.70;76.60;;;;;;10479833;28;20055;-56
2022/11/09 01:12:56;;;;;;;1.80;0.80;;;15.60;76.60;;;;;;10479838;28;20601;-56
2022/11/09 01:17:56;;;;;;;1.25;0.82;;;15.60;76.60;;;;;;10479500;28;20025;-55
2022/11/09 01:22:57;;;;;;;2.05;0.80;;;15.60;76.60;;;;;;10480831;28;20092;-56
2022/11/09 01:27:59;;;;;;;1.65;0.82;;;15.60;76.70;;;;;;10479501;28;20060;-56
2022/11/09 01:33:03;;;;;;;3.33;1.00;;;15.60;76.60;;;;;;10461732;28;20020;-56
2022/11/09 01:38:06;;;;;;;2.67;0.90;;;15.60;76.60;;;;;;10478720;28;20094;-56
2022/11/09 01:43:18;;;;;;;2.55;1.42;;;15.60;76.60;;;;;;10479860;28;20443;-55
2022/11/09 01:48:37;;;;;;;1.20;0.80;;;15.60;76.50;;;;;;10457046;28;20021;-56
2022/11/09 01:53:42;;;;;;;2.45;0.85;;;15.60;76.50;;;;;;10452309;28;20055;-56
2022/11/09 01:59:04;;;;;;;2.13;0.93;;;15.60;76.50;;;;;;10450934;28;20103;-56
2022/11/09 02:04:13;;;;;;;1.98;1.20;;;15.60;76.60;;;;;;10444040;28;20029;-56
2022/11/09 02:09:40;;;;;;;1.90;1.00;;;15.60;76.60;;;;;;10450629;28;20578;-56
2022/11/09 02:14:42;;;;;;;2.00;0.82;;;15.60;76.50;;;;;;10449685;28;20025;-56
2022/11/09 02:19:43;;;;;;;2.47;1.10;;;15.60;76.50;;;;;;10449929;28;20021;-56
2022/11/09 02:24:44;;;;;;;3.13;1.40;;;15.60;76.50;;;;;;10451046;28;20048;-55
2022/11/09 02:29:47;;;;;;;1.75;0.85;;;15.60;76.50;;;;;;10450532;28;20033;-57
2022/11/09 02:34:48;;;;;;;2.15;1.45;;;15.60;76.50;;;;;;10449282;28;20098;-56
2022/11/09 02:39:49;;;;;;;2.40;1.02;;;15.60;76.60;;;;;;10450419;28;20029;-56
2022/11/09 02:44:57;;;;;;;3.22;1.08;;;15.60;76.50;;;;;;10450081;28;20029;-56
2022/11/09 02:49:58;;;;;;;1.83;1.00;;;15.60;76.50;;;;;;10449995;28;20033;-56
2022/11/09 02:54:59;;;;;;;1.42;0.90;;;15.60;76.40;;;;;;10449936;28;20713;-56
2022/11/09 02:59:59;;;;;;;2.00;1.52;;;15.60;76.50;;;;;;10435068;28;20108;-56
2022/11/09 03:05:00;;;;;;;1.55;1.02;;;15.60;76.50;;;;;;10449544;28;20028;-56
2022/11/09 03:10:01;;;;;;;2.05;0.70;;;15.60;76.40;;;;;;10449522;28;20083;-56
2022/11/09 03:15:07;;;;;;;1.60;0.90;;;15.60;76.50;;;;;;10448701;28;20124;-56
2022/11/09 03:20:08;;;;;;;1.23;0.85;;;15.60;76.50;;;;;;10431253;28;20092;-56
2022/11/09 03:25:09;;;;;;;1.10;0.70;;;15.60;76.50;;;;;;10447454;28;20021;-56
2022/11/09 03:30:10;;;;;;;1.33;0.60;;;15.50;76.40;;;;;;10448195;28;20025;-56
2022/11/09 03:35:11;;;;;;;1.15;0.88;;;15.60;77.10;;;;;;10446819;28;20400;-56
2022/11/09 03:40:11;;;;;;;1.13;0.60;;;15.50;76.50;;;;;;10446449;28;20108;-56
2022/11/09 03:45:14;;;;;;;0.82;0.68;;;15.60;76.50;;;;;;10447821;28;20419;-56
2022/11/09 03:50:16;;;;;;;1.00;0.70;;;15.50;76.40;;;;;;10434342;28;20110;-56
2022/11/09 03:55:17;;;;;;;1.58;0.82;;;15.60;76.40;;;;;;10447368;28;20025;-56
2022/11/09 04:00:21;;;;;;;1.25;1.02;;;15.60;76.50;;;;;;10447122;28;20424;-56
2022/11/09 04:05:21;;;;;;;1.90;1.00;;;15.50;76.30;;;;;;10445559;28;20698;-54
2022/11/09 04:10:24;;;;;;;2.00;0.85;;;15.50;76.30;;;;;;10446870;28;20031;-56
2022/11/09 04:15:25;;;;;;;2.40;0.70;;;15.50;76.30;;;;;;10446395;28;20033;-56
2022/11/09 04:20:28;;;;;;;1.50;0.70;;;15.50;76.30;;;;;;10446498;28;20416;-56
2022/11/09 04:25:33;;;;;;;1.83;0.93;;;15.50;76.40;;;;;;10445212;28;20100;-56
2022/11/09 04:30:35;;;;;;;1.27;0.65;;;15.50;76.40;;;;;;10445355;28;20025;-56
2022/11/09 04:35:37;;;;;;;1.10;0.80;;;15.50;76.30;;;;;;10445706;28;20587;-55
2022/11/09 04:40:38;;;;;;;2.92;0.85;;;15.50;76.30;;;;;;10445336;28;20478;-56
2022/11/09 04:45:39;;;;;;;1.23;0.60;;;15.50;76.30;;;;;;10445305;28;20025;-56
2022/11/09 04:50:39;;;;;;;1.20;0.65;;;15.50;76.30;;;;;;10445511;28;20075;-55
2022/11/09 04:55:41;;;;;;;1.25;0.70;;;15.50;76.30;;;;;;10445306;28;20128;-55
2022/11/09 05:00:41;;;;;;;1.40;0.90;;;15.50;76.40;;;;;;10444481;28;20579;-55
2022/11/09 05:05:42;;;;;;;1.13;0.98;;;15.50;76.20;;;;;;10444703;28;20074;-56
2022/11/09 05:10:43;;;;;;;1.77;0.77;;;15.50;76.20;;;;;;10444840;28;20017;-56
2022/11/09 05:15:44;;;;;;;2.13;0.88;;;15.50;76.30;;;;;;10444832;28;20484;-56
2022/11/09 05:20:44;;;;;;;1.80;0.80;;;15.50;76.30;;;;;;10460769;28;20063;-55
2022/11/09 05:25:46;;;;;;;1.40;0.70;;;15.50;76.30;;;;;;10451723;28;20695;-56
2022/11/09 05:30:46;;;;;;;2.83;1.10;;;15.50;76.20;;;;;;10451679;28;20032;-56
2022/11/09 05:35:47;;;;;;;1.13;0.73;;;15.50;76.30;;;;;;10425403;28;20087;-56
2022/11/09 05:40:51;;;;;;;5.85;2.10;;;15.50;76.20;;;;;;10452491;28;20507;-56
2022/11/09 05:45:52;;;;;;;2.88;1.50;;;15.50;76.40;;;;;;10452617;28;20025;-56
2022/11/09 05:50:53;;;;;;;7.72;1.80;;;15.50;76.70;;;;;;10450585;28;20025;-55
2022/11/09 05:55:53;;;;;;;7.03;1.55;;;15.70;77.40;;;;;;10451710;28;20068;-55
2022/11/09 06:00:54;;;;;;;7.00;1.60;;;15.80;77.30;;;;;;10450203;28;20563;-54
2022/11/09 06:06:04;;;;;;;7.70;2.35;;;15.90;77.00;;;;;;10432590;28;20122;-56
2022/11/09 06:11:09;;;;;;;7.30;1.95;;;16.00;77.60;;;;;;10450060;28;20028;-54
2022/11/09 06:16:09;;;;;;;8.30;1.85;;;16.00;77.70;;;;;;10448497;28;20656;-56
2022/11/09 06:21:10;;;;;;;6.75;2.10;;;16.00;78.10;;;;;;10450440;28;20044;-54
2022/11/09 06:26:12;;;;;;;8.60;1.92;;;16.00;77.80;;;;;;10448958;28;20397;-55
2022/11/09 06:31:15;;;;;;;9.88;1.75;;;16.00;77.80;;;;;;10448591;28;20036;-54
2022/11/09 06:36:16;;;;;;;5.38;1.85;;;16.00;77.80;;;;;;10448880;28;20045;-56
2022/11/09 06:41:17;;;;;;;5.60;1.73;;;16.10;77.90;;;;;;10446468;28;20535;-60
2022/11/09 06:46:19;;;;;;;14.80;2.63;;;16.00;78.00;;;;;;10443535;28;20372;-58
2022/11/09 06:51:19;;;;;;;8.63;2.05;;;16.10;77.60;;;;;;10447686;28;20032;-56
2022/11/09 06:56:20;;;;;;;11.48;2.25;;;16.00;77.50;;;;;;10449536;28;20087;-56
2022/11/09 07:01:27;;;;;;;15.90;2.70;;;15.90;77.80;;;;;;10449639;28;20044;-56
2022/11/09 07:06:27;;;;;;;17.33;2.83;;;15.80;78.00;;;;;;10435291;28;20027;-55
2022/11/09 07:11:28;;;;;;;19.60;4.28;;;15.80;78.20;;;;;;10448893;28;20577;-55
2022/11/09 07:16:29;;;;;;;18.80;3.72;;;15.90;78.50;;;;;;10447615;28;20955;-56
2022/11/09 07:21:30;;;;;;;15.30;3.75;;;15.90;77.70;;;;;;10430532;28;20091;-56
2022/11/09 07:26:31;;;;;;;12.23;3.45;;;15.80;77.80;;;;;;10447679;28;20108;-56
2022/11/09 07:31:31;;;;;;;12.73;2.85;;;15.80;77.80;;;;;;10446950;28;20040;-56
2022/11/09 07:36:34;;;;;;;12.35;2.55;;;15.80;77.80;;;;;;10447667;28;20047;-55
2022/11/09 07:41:35;;;;;;;6.10;2.70;;;15.70;77.80;;;;;;10448249;28;20067;-55
2022/11/09 07:46:36;;;;;;;11.40;2.58;;;15.70;77.80;;;;;;10444940;28;20044;-56
2022/11/09 07:51:36;;;;;;;11.95;2.25;;;15.70;77.70;;;;;;10445560;28;20025;-55
2022/11/09 07:56:37;;;;;;;10.30;2.17;;;15.70;77.50;;;;;;10446049;28;20108;-56
2022/11/09 08:01:37;;;;;;;6.70;3.15;;;15.70;77.50;;;;;;10447349;28;20051;-56
2022/11/09 08:06:38;;;;;;;10.15;2.72;;;15.70;77.40;;;;;;10446395;28;20060;-55
2022/11/09 08:11:39;;;;;;;12.18;2.28;;;15.70;77.40;;;;;;10446932;28;20718;-55
2022/11/09 08:16:39;;;;;;;8.40;3.33;;;15.70;77.40;;;;;;10444885;28;20120;-54
2022/11/09 08:21:40;;;;;;;8.63;2.22;;;15.70;77.30;;;;;;10442452;28;20105;-57
2022/11/09 08:26:41;;;;;;;4.75;1.98;;;15.70;77.40;;;;;;10443597;28;20056;-56
2022/11/09 08:31:41;;;;;;;5.82;2.00;;;15.70;77.30;;;;;;10442756;28;20075;-55
2022/11/09 08:36:42;;;;;;;10.82;3.30;;;15.70;77.20;;;;;;10442508;28;20131;-57
2022/11/09 08:41:43;;;;;;;8.77;2.25;;;15.70;77.20;;;;;;10428149;28;20025;-58
2022/11/09 08:46:44;;;;;;;7.07;2.50;;;15.80;77.20;;;;;;10444540;28;20883;-56
2022/11/09 08:51:44;;;;;;;7.10;2.17;;;15.80;77.30;;;;;;10441024;28;20096;-57
2022/11/09 08:56:45;;;;;;;6.47;1.95;;;15.90;76.90;;;;;;10448267;28;20122;-56
2022/11/09 09:01:46;;;;;;;7.38;2.17;;;15.90;77.00;;;;;;10452422;28;20116;-57
2022/11/09 09:06:46;;;;;;;6.60;1.83;;;15.80;77.00;;;;;;10453272;28;20071;-57
2022/11/09 09:11:47;;;;;;;9.18;2.22;;;15.80;77.00;;;;;;10452939;28;20115;-57
2022/11/09 09:16:48;;;;;;;5.78;1.60;;;15.80;77.10;;;;;;10453731;28;20082;-57
2022/11/09 09:21:48;;;;;;;9.38;2.00;;;15.80;77.00;;;;;;10449294;28;20159;-57
2022/11/09 09:26:49;;;;;;;6.00;1.95;;;15.80;77.00;;;;;;10469970;28;20044;-57
2022/11/09 09:31:49;;;;;;;5.10;1.58;;;15.80;77.00;;;;;;10450922;28;20021;-58
2022/11/09 09:36:53;;;;;;;6.60;2.00;;;15.90;77.00;;;;;;10452845;28;20626;-57
2022/11/09 09:42:02;;;;;;;4.93;1.65;;;15.90;76.90;;;;;;10450977;28;20024;-57
2022/11/09 09:47:32;;;;;;;7.00;1.80;;;15.90;76.90;;;;;;10452315;28;20104;-57
2022/11/09 09:52:51;;;;;;;3.85;1.33;;;15.90;76.90;;;;;;10482893;28;20028;-57
2022/11/09 09:57:57;;;;;;;5.78;2.38;;;15.90;76.80;;;;;;10454951;28;20033;-57
2022/11/09 10:02:59;;;;;;;4.07;1.60;;;16.00;76.80;;;;;;10453129;28;20024;-56
2022/11/09 10:08:13;;;;;;;4.30;1.58;;;16.00;76.70;;;;;;10453862;28;20017;-56
2022/11/09 10:13:59;;;;;;;2.92;1.30;;;16.00;76.70;;;;;;10452727;28;20036;-56
2022/11/09 10:19:43;;;;;;;4.57;2.33;;;16.00;76.60;;;;;;10452571;28;20036;-57
2022/11/09 10:25:23;;;;;;;5.38;2.13;;;16.10;76.70;;;;;;10480177;28;20112;-57
2022/11/09 10:30:27;;;;;;;5.07;1.23;;;16.10;76.60;;;;;;10444166;28;20226;-56
2022/11/09 10:35:43;;;;;;;6.18;1.55;;;16.10;76.60;;;;;;10451339;28;20041;-56
2022/11/09 10:40:57;;;;;;;8.15;1.65;;;16.30;77.50;;;;;;10448623;28;20071;-57
2022/11/09 10:46:05;;;;;;;2.92;1.20;;;16.40;76.70;;;;;;10435670;28;20024;-56
2022/11/09 10:51:33;;;;;;;6.90;1.60;;;16.60;76.30;;;;;;10452673;28;20024;-56
2022/11/09 10:56:48;;;;;;;4.70;1.45;;;16.70;75.50;;;;;;10448172;28;20079;-57
2022/11/09 11:01:49;;;;;;;5.32;2.17;;;16.70;76.00;;;;;;10449926;28;20594;-56
2022/11/09 11:06:49;;;;;;;3.00;1.60;;;16.60;75.90;;;;;;10451518;28;20142;-57
2022/11/09 11:12:16;;;;;;;4.85;2.10;;;16.60;76.60;;;;;;10452388;28;20025;-57
2022/11/09 11:17:45;;;;;;;13.10;3.20;;;16.60;76.70;;;;;;10449742;28;20029;-57
2022/11/09 11:22:46;;;;;;;13.30;3.75;;;16.80;77.90;;;;;;10448764;28;20017;-56
2022/11/09 11:27:54;;;;;;;8.18;4.03;;;16.90;76.90;;;;;;10450137;28;20063;-55
2022/11/09 11:32:56;;;;;;;13.15;6.70;;;17.00;77.80;;;;;;10450382;28;20064;-56
2022/11/09 11:38:26;;;;;;;6.30;4.00;;;17.00;79.40;;;;;;10448900;28;20028;-56
2022/11/09 11:43:47;;;;;;;11.35;4.22;;;17.10;79.80;;;;;;10446499;28;20025;-55
2022/11/09 11:49:10;;;;;;;9.73;3.47;;;17.10;78.70;;;;;;10447023;28;20124;-55
2022/11/09 11:54:33;;;;;;;9.52;3.28;;;17.20;78.80;;;;;;10445797;28;20487;-55
2022/11/09 12:00:03;;;;;;;9.43;3.38;;;17.30;78.30;;;;;;10447577;28;20118;-54
2022/11/09 12:05:18;;;;;;;6.60;3.50;;;17.30;78.30;;;;;;10444435;28;20022;-56
2022/11/09 12:10:38;;;;;;;9.20;4.00;;;17.40;78.20;;;;;;10446160;28;20029;-56
2022/11/09 12:15:58;;;;;;;6.47;2.80;;;17.40;78.30;;;;;;10443457;28;20031;-56
2022/11/09 12:21:33;;;;;;;6.35;3.50;;;17.40;77.90;;;;;;10443750;28;20025;-54
2022/11/09 12:26:51;;;;;;;8.90;3.67;;;17.50;77.60;;;;;;10445765;28;20080;-56
2022/11/09 12:32:57;;;;;;;8.35;3.40;;;17.60;77.20;;;;;;10445980;28;20044;-56
2022/11/09 12:38:10;;;;;;;9.93;3.33;;;17.70;76.30;;;;;;10352456;28;20053;-55
2022/11/09 12:43:31;;;;;;;13.63;3.45;;;17.30;77.30;;;;;;10447662;28;20036;-56
2022/11/09 12:48:34;;;;;;;16.27;2.97;;;17.10;78.10;;;;;;10444212;28;20037;-54
2022/11/09 12:53:37;;;;;;;17.48;4.68;;;17.10;78.10;;;;;;10445287;28;20029;-54
2022/11/09 12:58:39;;;;;;;10.77;3.05;;;17.10;78.10;;;;;;10446092;28;20835;-55
2022/11/09 13:03:56;;;;;;;13.50;4.82;;;17.00;78.10;;;;;;10445574;28;20029;-54
2022/11/09 13:09:05;;;;;;;8.95;3.03;;;17.00;78.10;;;;;;10443540;28;20558;-55
2022/11/09 13:14:20;;;;;;;6.72;2.55;;;17.00;78.00;;;;;;10443966;28;20094;-55
2022/11/09 13:19:33;;;;;;;7.95;2.40;;;16.90;78.30;;;;;;10445076;28;20492;-53
2022/11/09 13:25:03;;;;;;;11.13;3.30;;;16.80;78.00;;;;;;10442703;28;20481;-55
2022/11/09 13:30:27;;;;;;;7.50;2.27;;;16.90;77.90;;;;;;10440009;28;20060;-53
2022/11/09 13:35:40;;;;;;;12.80;2.67;;;16.90;77.40;;;;;;10444170;28;20076;-55
2022/11/09 13:40:47;;;;;;;15.52;5.15;;;17.00;77.70;;;;;;10444087;28;20017;-53
2022/11/09 13:46:02;;;;;;;21.48;3.63;;;17.00;77.90;;;;;;10452402;28;20028;-54
2022/11/09 13:51:31;;;;;;;26.20;5.30;;;17.00;77.70;;;;;;10452403;28;20025;-50
2022/11/09 13:56:40;;;;;;;24.90;4.63;;;16.80;78.20;;;;;;10449452;28;20064;-54
2022/11/09 14:01:53;;;;;;;11.40;3.72;;;16.80;77.90;;;;;;10451574;28;20017;-54
2022/11/09 14:07:26;;;;;;;21.85;4.35;;;17.00;77.80;;;;;;10450222;28;20078;-54
2022/11/09 14:12:56;;;;;;;21.27;3.83;;;17.00;77.60;;;;;;10451772;28;20028;-52
2022/11/09 14:18:37;;;;;;;19.38;3.38;;;17.00;77.60;;;;;;10438445;28;20036;-54
2022/11/09 14:23:38;;;;;;;16.92;4.45;;;17.00;77.60;;;;;;10450498;28;20043;-55
2022/11/09 14:28:39;;;;;;;10.18;3.30;;;17.00;77.70;;;;;;10449452;28;20032;-55
2022/11/09 14:33:39;;;;;;;18.83;3.53;;;17.00;77.40;;;;;;10448379;28;20041;-52
2022/11/09 14:38:46;;;;;;;13.95;3.92;;;16.90;77.70;;;;;;10448973;28;20051;-51
2022/11/09 14:43:48;;;;;;;13.48;3.53;;;16.90;77.80;;;;;;10480804;28;20032;-51
2022/11/09 14:48:55;;;;;;;14.30;3.78;;;16.90;77.70;;;;;;10447371;28;20029;-51
2022/11/09 14:53:59;;;;;;;17.95;4.60;;;16.90;78.00;;;;;;10447803;28;20075;-54
2022/11/09 14:59:03;;;;;;;22.67;3.40;;;16.90;77.80;;;;;;10448196;28;20036;-54
2022/11/09 15:04:10;;;;;;;13.88;4.13;;;16.90;77.90;;;;;;10446941;28;20526;-55
2022/11/09 15:09:18;;;;;;;37.30;5.03;;;16.90;78.00;;;;;;10444948;28;20060;-55
2022/11/09 15:14:30;;;;;;;53.45;7.20;;;16.90;78.10;;;;;;10448037;28;20020;-54
2022/11/09 15:19:38;;;;;;;18.55;3.60;;;16.80;77.60;;;;;;10447403;28;20032;-55
2022/11/09 15:24:46;;;;;;;20.95;3.20;;;16.70;77.60;;;;;;10447578;28;20021;-55
2022/11/09 15:29:47;;;;;;;23.85;4.18;;;16.70;77.90;;;;;;10446548;28;20025;-55
2022/11/09 15:34:55;;;;;;;17.90;3.72;;;16.60;78.00;;;;;;10446996;28;20029;-55
2022/11/09 15:39:58;;;;;;;15.57;3.40;;;16.50;78.00;;;;;;10444104;28;20100;-55
2022/11/09 15:44:59;;;;;;;9.02;3.10;;;16.50;78.00;;;;;;10447115;28;20056;-55
2022/11/09 15:50:05;;;;;;;11.65;3.28;;;16.40;77.90;;;;;;10443412;28;20048;-55
2022/11/09 15:55:06;;;;;;;12.68;3.28;;;16.40;78.50;;;;;;10442198;28;20048;-55
2022/11/09 16:00:12;;;;;;;12.75;2.72;;;16.40;77.90;;;;;;10445644;28;20025;-54
2022/11/09 16:05:13;;;;;;;10.48;3.08;;;16.40;77.90;;;;;;10445011;28;20021;-54
2022/11/09 16:10:15;;;;;;;10.38;2.80;;;16.30;77.90;;;;;;10444544;28;20480;-55
2022/11/09 16:15:16;;;;;;;7.03;2.35;;;16.30;77.90;;;;;;10445188;28;20124;-55
2022/11/09 16:20:18;;;;;;;6.57;2.28;;;16.30;77.90;;;;;;10445672;28;20025;-54
2022/11/09 16:25:20;;;;;;;13.68;3.85;;;16.30;77.90;;;;;;10444139;28;20029;-52
2022/11/09 16:30:21;;;;;;;16.88;2.83;;;16.30;77.90;;;;;;10443849;28;20086;-54
2022/11/09 16:35:22;;;;;;;13.02;2.10;;;16.30;77.80;;;;;;10441797;28;20048;-53
2022/11/09 16:40:23;;;;;;;5.22;2.30;;;16.30;77.70;;;;;;10459570;28;20052;-52
2022/11/09 16:45:23;;;;;;;31.02;5.18;;;16.30;77.80;;;;;;10442758;28;22051;-55
2022/11/09 16:50:24;;;;;;;14.05;4.10;;;16.20;77.60;;;;;;10417077;28;20057;-54
2022/11/09 16:55:25;;;;;;;14.20;3.30;;;16.30;78.40;;;;;;10445553;28;20081;-55
2022/11/09 17:00:26;;;;;;;13.43;5.68;;;16.30;77.90;;;;;;10451987;28;20060;-54
2022/11/09 17:05:26;;;;;;;13.77;3.70;;;16.30;78.00;;;;;;10445575;28;20044;-54
2022/11/09 17:10:27;;;;;;;23.33;5.15;;;16.30;77.10;;;;;;10436382;28;20096;-58
2022/11/09 17:15:28;;;;;;;11.75;5.78;;;16.30;77.80;;;;;;10432278;28;20116;-61
2022/11/09 17:20:28;;;;;;;14.25;4.38;;;16.70;81.30;;;;;;10451804;28;20023;-62
2022/11/09 17:25:29;;;;;;;16.55;5.35;;;16.90;79.60;;;;;;10452632;28;20513;-62
2022/11/09 17:30:30;;;;;;;15.52;5.65;;;17.00;79.60;;;;;;10451999;28;20116;-60
2022/11/09 17:35:35;;;;;;;14.90;4.38;;;17.00;78.40;;;;;;10451753;28;20040;-60
2022/11/09 17:40:36;;;;;;;14.63;4.80;;;16.80;78.80;;;;;;10453351;28;20462;-58
2022/11/09 17:45:36;;;;;;;10.00;4.20;;;16.80;78.40;;;;;;10452145;28;20025;-58
2022/11/09 17:50:37;;;;;;;13.18;4.57;;;16.70;78.80;;;;;;10452825;28;20118;-57
2022/11/09 17:55:38;;;;;;;17.23;5.10;;;16.70;78.50;;;;;;10452713;28;20426;-60
2022/11/09 18:00:39;;;;;;;11.75;4.47;;;16.60;78.80;;;;;;10450705;28;20036;-57
2022/11/09 18:05:41;;;;;;;13.05;3.78;;;16.50;78.70;;;;;;10451157;28;20017;-58
2022/11/09 18:10:44;;;;;;;11.95;3.95;;;16.50;78.90;;;;;;10450646;28;20105;-59
2022/11/09 18:15:44;;;;;;;14.77;4.97;;;16.50;78.90;;;;;;10449268;28;20041;-59
2022/11/09 18:20:45;;;;;;;13.35;4.15;;;16.50;78.80;;;;;;10450061;28;20559;-58
2022/11/09 18:25:58;;;;;;;12.43;4.03;;;16.40;79.20;;;;;;10447768;28;20025;-59
2022/11/09 18:31:07;;;;;;;9.77;3.85;;;16.40;79.20;;;;;;10448726;28;20017;-57
2022/11/09 18:36:14;;;;;;;10.90;3.45;;;16.40;79.40;;;;;;10448585;28;20068;-59
2022/11/09 18:41:20;;;;;;;8.05;2.90;;;16.40;79.30;;;;;;10447238;28;20061;-58
2022/11/09 18:46:21;;;;;;;11.13;3.30;;;16.40;79.20;;;;;;10448858;28;20464;-58
2022/11/09 18:51:22;;;;;;;8.70;3.10;;;16.40;79.20;;;;;;10449400;28;20051;-57
2022/11/09 18:56:23;;;;;;;8.48;3.42;;;16.40;79.30;;;;;;10447450;28;20025;-58
2022/11/09 19:01:28;;;;;;;9.48;4.05;;;16.30;79.30;;;;;;10447962;28;20130;-58
2022/11/09 19:06:29;;;;;;;8.40;3.08;;;16.40;79.40;;;;;;10436824;28;20021;-58
2022/11/09 19:11:30;;;;;;;8.05;3.70;;;16.40;79.40;;;;;;10447525;28;20032;-59
2022/11/09 19:16:31;;;;;;;8.82;3.22;;;16.30;79.30;;;;;;10447593;28;20044;-59
2022/11/09 19:21:40;;;;;;;7.43;3.15;;;16.30;79.30;;;;;;10448545;28;20102;-59
2022/11/09 19:26:41;;;;;;;8.70;3.70;;;16.30;79.30;;;;;;10445630;28;20115;-59
2022/11/09 19:31:43;;;;;;;9.15;3.47;;;16.30;79.20;;;;;;10448060;28;20263;-59
2022/11/09 19:36:44;;;;;;;6.07;2.70;;;16.30;79.10;;;;;;10446208;28;20052;-58
2022/11/09 19:41:46;;;;;;;6.72;3.13;;;16.30;79.20;;;;;;10446569;28;20075;-59
2022/11/09 19:46:46;;;;;;;6.65;2.67;;;16.30;79.20;;;;;;10445668;28;20031;-58
2022/11/09 19:51:47;;;;;;;9.18;3.10;;;16.30;79.20;;;;;;10446716;28;20108;-58
2022/11/09 19:56:48;;;;;;;6.55;3.10;;;16.30;79.20;;;;;;10445668;28;20091;-59
2022/11/09 20:01:48;;;;;;;6.18;2.33;;;16.30;79.30;;;;;;10444258;28;20067;-60
2022/11/09 20:06:49;;;;;;;5.50;2.45;;;16.30;79.10;;;;;;10445600;28;20637;-62
2022/11/09 20:17:09;;;;;;;5.57;2.60;;;16.20;79.00;;;;;;10446383;28;20555;-62
2022/11/09 20:22:09;;;;;;;5.15;2.28;;;16.20;79.00;;;;;;10429111;28;20013;-61
2022/11/09 20:27:10;;;;;;;4.07;2.40;;;16.20;79.10;;;;;;10445366;28;20087;-62
2022/11/09 20:32:11;;;;;;;5.03;2.78;;;16.10;79.00;;;;;;10444482;28;20113;-62
2022/11/09 20:37:11;;;;;;;4.07;2.03;;;16.10;78.90;;;;;;10444803;28;20084;-61
2022/11/09 20:42:12;;;;;;;5.20;2.28;;;16.10;78.90;;;;;;10445739;28;20080;-61
2022/11/09 20:47:13;;;;;;;4.22;2.22;;;16.10;78.90;;;;;;10443168;28;20112;-61
2022/11/09 20:52:14;;;;;;;4.32;1.90;;;16.10;78.70;;;;;;10447128;28;20154;-61
2022/11/09 20:57:14;;;;;;;6.35;2.58;;;16.10;78.70;;;;;;10452116;28;20045;-61
2022/11/09 21:02:15;;;;;;;3.78;1.85;;;16.10;78.70;;;;;;10436778;28;20464;-62
2022/11/09 21:07:16;;;;;;;4.15;1.90;;;16.10;78.70;;;;;;10452929;28;20025;-62
2022/11/09 21:12:23;;;;;;;5.65;1.58;;;16.10;78.60;;;;;;10452790;28;20060;-61
2022/11/09 21:17:24;;;;;;;2.75;1.73;;;16.10;78.60;;;;;;10454301;28;20064;-62
2022/11/09 21:29:48;;;;;;;5.78;2.10;;;16.00;78.60;;;;;;10452454;28;20101;-62
2022/11/09 21:33:04;;;;;;;3.87;2.33;;;16.00;78.50;;;;;;10453681;28;20032;-61
2022/11/09 21:38:05;;;;;;;5.55;2.05;;;16.00;78.50;;;;;;10451556;28;20037;-62
2022/11/09 21:43:05;;;;;;;3.63;1.77;;;16.00;78.50;;;;;;10451734;28;20048;-62
2022/11/09 21:48:07;;;;;;;4.57;1.70;;;16.00;78.50;;;;;;10451772;28;20048;-61
2022/11/09 21:53:07;;;;;;;6.30;2.20;;;16.00;78.50;;;;;;10451658;28;20032;-62
2022/11/09 21:58:08;;;;;;;6.57;2.70;;;16.00;78.40;;;;;;10451259;28;20662;-61
2022/11/09 22:03:09;;;;;;;3.65;1.77;;;16.00;78.40;;;;;;10450527;28;20048;-62
2022/11/09 22:08:09;;;;;;;5.28;1.77;;;16.00;78.40;;;;;;10434051;28;20104;-61
2022/11/09 22:23:54;;;;;;;4.55;1.70;;;16.00;78.20;;;;;;10450445;28;20025;-61
2022/11/09 22:28:57;;;;;;;3.65;2.40;;;16.00;78.20;;;;;;10451249;28;20013;-62
2022/11/09 22:33:57;;;;;;;4.40;1.70;;;15.90;78.00;;;;;;10449424;28;20472;-61
2022/11/09 22:38:58;;;;;;;2.60;1.67;;;15.90;78.10;;;;;;10449539;28;20049;-61
2022/11/09 22:43:59;;;;;;;3.22;1.60;;;15.90;78.10;;;;;;10449669;28;20512;-61
2022/11/09 22:48:59;;;;;;;2.65;1.73;;;15.90;78.10;;;;;;10449654;28;20100;-61
2022/11/09 22:54:00;;;;;;;2.35;1.35;;;15.90;78.10;;;;;;10449135;28;20029;-61
2022/11/09 22:59:01;;;;;;;3.63;1.38;;;15.90;78.00;;;;;;10448959;28;20053;-62
2022/11/09 23:04:01;;;;;;;3.22;1.83;;;15.90;78.00;;;;;;10448359;28;20103;-61
2022/11/09 23:09:02;;;;;;;3.00;1.48;;;15.90;78.00;;;;;;10482466;28;20017;-61
2022/11/09 23:14:03;;;;;;;4.80;1.60;;;15.90;78.00;;;;;;10430611;28;20021;-62
2022/11/09 23:19:03;;;;;;;3.45;1.90;;;15.90;78.00;;;;;;10448114;28;20035;-61
2022/11/09 23:25:52;;;;;;;5.25;2.00;;;15.90;77.90;;;;;;10449313;28;20086;-61
2022/11/09 23:29:27;;;;;;;4.80;1.77;;;15.90;78.00;;;;;;10436528;28;20040;-61
2022/11/09 23:34:27;;;;;;;3.10;1.58;;;15.90;77.90;;;;;;10448314;28;20490;-61
2022/11/09 23:39:28;;;;;;;3.97;2.13;;;15.80;77.90;;;;;;10447122;28;20055;-61
2022/11/09 23:44:29;;;;;;;4.05;1.42;;;15.90;77.90;;;;;;10447328;28;20113;-61
2022/11/09 23:49:29;;;;;;;4.15;2.00;;;15.80;77.80;;;;;;10447423;28;20063;-61
2022/11/09 23:54:30;;;;;;;4.97;1.85;;;15.80;77.90;;;;;;10446394;28;20599;-61
2022/11/09 23:59:31;;;;;;;3.03;1.35;;;15.80;78.40;;;;;;10448361;28;20096;-62
